sensor_id;sensor_type;location;lat;lon;timestamp;P1;durP1;ratioP1;P2;durP2;ratioP2
65420;SDS011;52028;50.658;14.004;2022-12-07T00:01:11;4.18;;;2.30;;
65420;SDS011;52028;50.658;14.004;2022-12-07T00:03:39;5.20;;;2.25;;
65420;SDS011;52028;50.658;14.004;2022-12-07T00:06:06;4.40;;;2.20;;
65420;SDS011;52028;50.658;14.004;2022-12-07T00:08:34;6.50;;;2.80;;
65420;SDS011;52028;50.658;14.004;2022-12-07T00:11:06;3.40;;;2.00;;
65420;SDS011;52028;50.658;14.004;2022-12-07T00:13:37;5.63;;;2.53;;
65420;SDS011;52028;50.658;14.004;2022-12-07T00:18:33;5.45;;;2.78;;
65420;SDS011;52028;50.658;14.004;2022-12-07T00:23:46;6.20;;;2.60;;
65420;SDS011;52028;50.658;14.004;2022-12-07T00:28:50;6.13;;;3.22;;
65420;SDS011;52028;50.658;14.004;2022-12-07T00:31:17;5.38;;;2.80;;
65420;SDS011;52028;50.658;14.004;2022-12-07T00:33:44;6.32;;;3.50;;
65420;SDS011;52028;50.658;14.004;2022-12-07T00:36:11;8.70;;;4.03;;
65420;SDS011;52028;50.658;14.004;2022-12-07T00:38:38;6.95;;;4.30;;
65420;SDS011;52028;50.658;14.004;2022-12-07T00:41:05;8.52;;;4.53;;
65420;SDS011;52028;50.658;14.004;2022-12-07T00:43:34;6.93;;;4.32;;
65420;SDS011;52028;50.658;14.004;2022-12-07T00:45:59;8.18;;;4.65;;
65420;SDS011;52028;50.658;14.004;2022-12-07T00:48:24;7.70;;;4.03;;
65420;SDS011;52028;50.658;14.004;2022-12-07T00:50:50;7.38;;;3.88;;
65420;SDS011;52028;50.658;14.004;2022-12-07T00:53:16;8.73;;;4.55;;
65420;SDS011;52028;50.658;14.004;2022-12-07T00:55:42;6.35;;;3.65;;
65420;SDS011;52028;50.658;14.004;2022-12-07T00:58:09;6.72;;;3.97;;
65420;SDS011;52028;50.658;14.004;2022-12-07T01:00:35;8.80;;;4.40;;
65420;SDS011;52028;50.658;14.004;2022-12-07T01:03:01;9.90;;;4.47;;
65420;SDS011;52028;50.658;14.004;2022-12-07T01:05:27;9.27;;;4.75;;
65420;SDS011;52028;50.658;14.004;2022-12-07T01:07:52;12.85;;;4.70;;
65420;SDS011;52028;50.658;14.004;2022-12-07T01:10:17;8.25;;;4.28;;
65420;SDS011;52028;50.658;14.004;2022-12-07T01:12:43;6.70;;;4.00;;
65420;SDS011;52028;50.658;14.004;2022-12-07T01:15:08;6.40;;;3.50;;
65420;SDS011;52028;50.658;14.004;2022-12-07T01:17:34;7.88;;;4.38;;
65420;SDS011;52028;50.658;14.004;2022-12-07T01:20:00;6.95;;;3.55;;
65420;SDS011;52028;50.658;14.004;2022-12-07T01:22:26;7.63;;;4.03;;
65420;SDS011;52028;50.658;14.004;2022-12-07T01:24:51;8.02;;;4.00;;
65420;SDS011;52028;50.658;14.004;2022-12-07T01:27:16;5.65;;;3.60;;
65420;SDS011;52028;50.658;14.004;2022-12-07T01:29:42;8.43;;;4.43;;
65420;SDS011;52028;50.658;14.004;2022-12-07T01:32:07;7.07;;;3.67;;
65420;SDS011;52028;50.658;14.004;2022-12-07T01:34:33;7.53;;;3.65;;
65420;SDS011;52028;50.658;14.004;2022-12-07T01:36:58;6.70;;;3.30;;
65420;SDS011;52028;50.658;14.004;2022-12-07T01:39:24;11.45;;;4.05;;
65420;SDS011;52028;50.658;14.004;2022-12-07T01:41:49;7.15;;;3.78;;
65420;SDS011;52028;50.658;14.004;2022-12-07T01:46:47;14.05;;;5.68;;
65420;SDS011;52028;50.658;14.004;2022-12-07T01:51:48;7.75;;;3.45;;
65420;SDS011;52028;50.658;14.004;2022-12-07T01:54:17;6.10;;;2.17;;
65420;SDS011;52028;50.658;14.004;2022-12-07T01:56:45;5.07;;;2.45;;
65420;SDS011;52028;50.658;14.004;2022-12-07T01:59:16;4.10;;;2.38;;
65420;SDS011;52028;50.658;14.004;2022-12-07T02:01:43;5.57;;;2.90;;
65420;SDS011;52028;50.658;14.004;2022-12-07T02:04:09;4.60;;;2.35;;
65420;SDS011;52028;50.658;14.004;2022-12-07T02:06:35;4.22;;;2.40;;
65420;SDS011;52028;50.658;14.004;2022-12-07T02:09:02;4.07;;;2.05;;
65420;SDS011;52028;50.658;14.004;2022-12-07T02:11:28;4.22;;;2.40;;
65420;SDS011;52028;50.658;14.004;2022-12-07T02:13:54;6.13;;;2.85;;
65420;SDS011;52028;50.658;14.004;2022-12-07T02:21:51;6.70;;;3.30;;
65420;SDS011;52028;50.658;14.004;2022-12-07T02:29:36;6.22;;;3.13;;
65420;SDS011;52028;50.658;14.004;2022-12-07T02:32:08;6.10;;;2.85;;
65420;SDS011;52028;50.658;14.004;2022-12-07T02:34:51;5.75;;;2.55;;
65420;SDS011;52028;50.658;14.004;2022-12-07T02:40:25;6.38;;;3.45;;
65420;SDS011;52028;50.658;14.004;2022-12-07T02:43:10;5.63;;;3.20;;
65420;SDS011;52028;50.658;14.004;2022-12-07T02:45:40;4.65;;;2.95;;
65420;SDS011;52028;50.658;14.004;2022-12-07T02:48:07;7.88;;;3.60;;
65420;SDS011;52028;50.658;14.004;2022-12-07T02:50:35;6.85;;;3.15;;
65420;SDS011;52028;50.658;14.004;2022-12-07T02:53:00;6.03;;;3.22;;
65420;SDS011;52028;50.658;14.004;2022-12-07T02:55:28;6.15;;;3.00;;
65420;SDS011;52028;50.658;14.004;2022-12-07T02:58:01;7.28;;;3.80;;
65420;SDS011;52028;50.658;14.004;2022-12-07T03:00:44;7.72;;;3.63;;
65420;SDS011;52028;50.658;14.004;2022-12-07T03:03:28;8.75;;;3.38;;
65420;SDS011;52028;50.658;14.004;2022-12-07T03:06:08;8.65;;;4.22;;
65420;SDS011;52028;50.658;14.004;2022-12-07T03:11:55;6.43;;;2.97;;
65420;SDS011;52028;50.658;14.004;2022-12-07T03:14:30;6.65;;;3.13;;
65420;SDS011;52028;50.658;14.004;2022-12-07T03:17:20;8.30;;;3.20;;
65420;SDS011;52028;50.658;14.004;2022-12-07T03:19:51;7.68;;;3.40;;
65420;SDS011;52028;50.658;14.004;2022-12-07T03:22:21;7.28;;;3.45;;
65420;SDS011;52028;50.658;14.004;2022-12-07T03:24:52;6.47;;;3.25;;
65420;SDS011;52028;50.658;14.004;2022-12-07T03:27:25;7.40;;;3.70;;
65420;SDS011;52028;50.658;14.004;2022-12-07T03:29:59;7.80;;;3.47;;
65420;SDS011;52028;50.658;14.004;2022-12-07T03:32:30;10.13;;;4.30;;
65420;SDS011;52028;50.658;14.004;2022-12-07T03:42:41;6.07;;;3.60;;
65420;SDS011;52028;50.658;14.004;2022-12-07T03:45:07;9.52;;;4.22;;
65420;SDS011;52028;50.658;14.004;2022-12-07T03:47:35;9.50;;;4.57;;
65420;SDS011;52028;50.658;14.004;2022-12-07T03:50:07;7.05;;;4.18;;
65420;SDS011;52028;50.658;14.004;2022-12-07T03:52:40;7.85;;;4.05;;
65420;SDS011;52028;50.658;14.004;2022-12-07T03:57:35;11.50;;;5.65;;
65420;SDS011;52028;50.658;14.004;2022-12-07T04:00:03;11.50;;;6.00;;
65420;SDS011;52028;50.658;14.004;2022-12-07T04:02:32;11.35;;;6.00;;
65420;SDS011;52028;50.658;14.004;2022-12-07T04:04:58;11.93;;;5.90;;
65420;SDS011;52028;50.658;14.004;2022-12-07T04:07:23;12.00;;;6.13;;
65420;SDS011;52028;50.658;14.004;2022-12-07T04:09:49;12.02;;;6.68;;
65420;SDS011;52028;50.658;14.004;2022-12-07T04:12:15;16.48;;;8.23;;
65420;SDS011;52028;50.658;14.004;2022-12-07T04:14:40;11.82;;;7.22;;
65420;SDS011;52028;50.658;14.004;2022-12-07T04:17:05;18.13;;;9.52;;
65420;SDS011;52028;50.658;14.004;2022-12-07T04:19:31;19.48;;;8.40;;
65420;SDS011;52028;50.658;14.004;2022-12-07T04:21:59;16.00;;;7.65;;
65420;SDS011;52028;50.658;14.004;2022-12-07T04:24:25;11.18;;;5.70;;
65420;SDS011;52028;50.658;14.004;2022-12-07T04:26:51;14.90;;;5.93;;
65420;SDS011;52028;50.658;14.004;2022-12-07T04:29:17;9.68;;;4.75;;
65420;SDS011;52028;50.658;14.004;2022-12-07T04:31:43;8.05;;;4.47;;
65420;SDS011;52028;50.658;14.004;2022-12-07T04:34:09;9.75;;;4.72;;
65420;SDS011;52028;50.658;14.004;2022-12-07T04:36:35;13.23;;;5.22;;
65420;SDS011;52028;50.658;14.004;2022-12-07T04:39:03;11.48;;;5.68;;
65420;SDS011;52028;50.658;14.004;2022-12-07T04:41:29;10.70;;;5.22;;
65420;SDS011;52028;50.658;14.004;2022-12-07T04:43:55;10.52;;;4.70;;
65420;SDS011;52028;50.658;14.004;2022-12-07T04:46:48;11.07;;;5.35;;
65420;SDS011;52028;50.658;14.004;2022-12-07T04:49:15;9.65;;;4.00;;
65420;SDS011;52028;50.658;14.004;2022-12-07T04:51:41;8.68;;;4.68;;
65420;SDS011;52028;50.658;14.004;2022-12-07T04:54:08;14.68;;;6.65;;
65420;SDS011;52028;50.658;14.004;2022-12-07T04:56:34;10.25;;;5.65;;
65420;SDS011;52028;50.658;14.004;2022-12-07T04:59:00;14.32;;;6.70;;
65420;SDS011;52028;50.658;14.004;2022-12-07T05:01:26;11.77;;;5.85;;
65420;SDS011;52028;50.658;14.004;2022-12-07T05:03:51;11.35;;;5.78;;
65420;SDS011;52028;50.658;14.004;2022-12-07T05:06:29;9.05;;;5.43;;
65420;SDS011;52028;50.658;14.004;2022-12-07T05:11:22;8.52;;;4.47;;
65420;SDS011;52028;50.658;14.004;2022-12-07T05:14:04;10.55;;;4.70;;
65420;SDS011;52028;50.658;14.004;2022-12-07T05:16:33;12.88;;;5.78;;
65420;SDS011;52028;50.658;14.004;2022-12-07T05:18:58;18.63;;;7.82;;
65420;SDS011;52028;50.658;14.004;2022-12-07T05:21:23;19.15;;;8.77;;
65420;SDS011;52028;50.658;14.004;2022-12-07T05:23:49;17.55;;;6.43;;
65420;SDS011;52028;50.658;14.004;2022-12-07T05:26:14;8.07;;;3.97;;
65420;SDS011;52028;50.658;14.004;2022-12-07T05:28:43;15.10;;;5.20;;
65420;SDS011;52028;50.658;14.004;2022-12-07T05:31:08;10.98;;;5.00;;
65420;SDS011;52028;50.658;14.004;2022-12-07T05:33:34;11.38;;;4.72;;
65420;SDS011;52028;50.658;14.004;2022-12-07T05:36:00;7.03;;;3.67;;
65420;SDS011;52028;50.658;14.004;2022-12-07T05:38:31;9.52;;;5.00;;
65420;SDS011;52028;50.658;14.004;2022-12-07T05:41:01;8.95;;;4.80;;
65420;SDS011;52028;50.658;14.004;2022-12-07T05:45:52;11.85;;;4.93;;
65420;SDS011;52028;50.658;14.004;2022-12-07T05:48:18;9.88;;;5.45;;
65420;SDS011;52028;50.658;14.004;2022-12-07T05:50:43;15.85;;;6.90;;
65420;SDS011;52028;50.658;14.004;2022-12-07T05:53:08;16.38;;;8.80;;
65420;SDS011;52028;50.658;14.004;2022-12-07T05:55:34;16.83;;;8.27;;
65420;SDS011;52028;50.658;14.004;2022-12-07T05:57:59;18.40;;;9.23;;
65420;SDS011;52028;50.658;14.004;2022-12-07T06:00:43;19.50;;;11.20;;
65420;SDS011;52028;50.658;14.004;2022-12-07T06:03:08;16.50;;;9.50;;
65420;SDS011;52028;50.658;14.004;2022-12-07T06:05:33;31.33;;;15.88;;
65420;SDS011;52028;50.658;14.004;2022-12-07T06:08:00;20.98;;;13.18;;
65420;SDS011;52028;50.658;14.004;2022-12-07T06:10:25;19.77;;;10.52;;
65420;SDS011;52028;50.658;14.004;2022-12-07T06:12:50;18.38;;;10.10;;
65420;SDS011;52028;50.658;14.004;2022-12-07T06:15:16;17.05;;;7.53;;
65420;SDS011;52028;50.658;14.004;2022-12-07T06:17:41;15.38;;;7.18;;
65420;SDS011;52028;50.658;14.004;2022-12-07T06:20:07;19.10;;;8.02;;
65420;SDS011;52028;50.658;14.004;2022-12-07T06:22:33;14.23;;;6.88;;
65420;SDS011;52028;50.658;14.004;2022-12-07T06:24:58;17.65;;;7.38;;
65420;SDS011;52028;50.658;14.004;2022-12-07T06:27:23;19.45;;;9.90;;
65420;SDS011;52028;50.658;14.004;2022-12-07T06:29:49;38.97;;;18.52;;
65420;SDS011;52028;50.658;14.004;2022-12-07T06:32:14;21.88;;;9.70;;
65420;SDS011;52028;50.658;14.004;2022-12-07T06:34:39;13.40;;;6.60;;
65420;SDS011;52028;50.658;14.004;2022-12-07T06:37:05;17.85;;;9.88;;
65420;SDS011;52028;50.658;14.004;2022-12-07T06:39:30;22.17;;;11.77;;
65420;SDS011;52028;50.658;14.004;2022-12-07T06:41:56;19.67;;;9.00;;
65420;SDS011;52028;50.658;14.004;2022-12-07T06:44:22;24.27;;;10.68;;
65420;SDS011;52028;50.658;14.004;2022-12-07T06:46:49;9.07;;;5.78;;
65420;SDS011;52028;50.658;14.004;2022-12-07T06:49:15;16.50;;;9.10;;
65420;SDS011;52028;50.658;14.004;2022-12-07T06:51:42;10.50;;;5.65;;
65420;SDS011;52028;50.658;14.004;2022-12-07T06:54:11;11.25;;;5.95;;
65420;SDS011;52028;50.658;14.004;2022-12-07T06:59:03;11.50;;;5.75;;
65420;SDS011;52028;50.658;14.004;2022-12-07T07:01:31;8.60;;;4.05;;
65420;SDS011;52028;50.658;14.004;2022-12-07T07:03:57;10.88;;;5.60;;
65420;SDS011;52028;50.658;14.004;2022-12-07T07:06:22;20.90;;;9.18;;
65420;SDS011;52028;50.658;14.004;2022-12-07T07:08:48;54.45;;;17.55;;
65420;SDS011;52028;50.658;14.004;2022-12-07T07:11:13;9.52;;;4.72;;
65420;SDS011;52028;50.658;14.004;2022-12-07T07:13:38;9.93;;;5.78;;
65420;SDS011;52028;50.658;14.004;2022-12-07T07:16:04;10.38;;;5.07;;
65420;SDS011;52028;50.658;14.004;2022-12-07T07:18:30;6.32;;;3.90;;
65420;SDS011;52028;50.658;14.004;2022-12-07T07:20:56;6.47;;;3.25;;
65420;SDS011;52028;50.658;14.004;2022-12-07T07:23:21;9.52;;;2.85;;
65420;SDS011;52028;50.658;14.004;2022-12-07T07:25:47;9.02;;;3.97;;
65420;SDS011;52028;50.658;14.004;2022-12-07T07:28:13;9.77;;;4.35;;
65420;SDS011;52028;50.658;14.004;2022-12-07T07:30:39;13.43;;;6.68;;
65420;SDS011;52028;50.658;14.004;2022-12-07T07:33:05;7.45;;;3.53;;
65420;SDS011;52028;50.658;14.004;2022-12-07T07:35:33;7.45;;;3.88;;
65420;SDS011;52028;50.658;14.004;2022-12-07T07:37:59;7.00;;;3.35;;
65420;SDS011;52028;50.658;14.004;2022-12-07T07:40:29;7.07;;;3.63;;
65420;SDS011;52028;50.658;14.004;2022-12-07T07:42:55;11.40;;;5.47;;
65420;SDS011;52028;50.658;14.004;2022-12-07T07:45:21;11.57;;;5.00;;
65420;SDS011;52028;50.658;14.004;2022-12-07T07:47:47;9.63;;;4.55;;
65420;SDS011;52028;50.658;14.004;2022-12-07T07:50:13;9.18;;;4.75;;
65420;SDS011;52028;50.658;14.004;2022-12-07T07:52:38;9.00;;;4.15;;
65420;SDS011;52028;50.658;14.004;2022-12-07T07:55:04;8.93;;;5.00;;
65420;SDS011;52028;50.658;14.004;2022-12-07T07:57:30;13.40;;;5.68;;
65420;SDS011;52028;50.658;14.004;2022-12-07T07:59:55;7.45;;;4.18;;
65420;SDS011;52028;50.658;14.004;2022-12-07T08:02:21;10.52;;;5.38;;
65420;SDS011;52028;50.658;14.004;2022-12-07T08:04:47;6.90;;;4.30;;
65420;SDS011;52028;50.658;14.004;2022-12-07T08:07:12;6.38;;;3.60;;
65420;SDS011;52028;50.658;14.004;2022-12-07T08:09:38;7.90;;;3.75;;
65420;SDS011;52028;50.658;14.004;2022-12-07T08:12:04;8.05;;;3.70;;
65420;SDS011;52028;50.658;14.004;2022-12-07T08:14:30;8.32;;;4.07;;
65420;SDS011;52028;50.658;14.004;2022-12-07T08:16:55;12.02;;;4.82;;
65420;SDS011;52028;50.658;14.004;2022-12-07T08:19:21;8.35;;;3.58;;
65420;SDS011;52028;50.658;14.004;2022-12-07T08:21:46;10.80;;;5.75;;
65420;SDS011;52028;50.658;14.004;2022-12-07T08:24:12;9.35;;;4.68;;
65420;SDS011;52028;50.658;14.004;2022-12-07T08:26:37;9.75;;;4.00;;
65420;SDS011;52028;50.658;14.004;2022-12-07T08:29:03;9.73;;;4.55;;
65420;SDS011;52028;50.658;14.004;2022-12-07T08:31:28;8.20;;;4.30;;
65420;SDS011;52028;50.658;14.004;2022-12-07T08:33:54;14.88;;;5.68;;
65420;SDS011;52028;50.658;14.004;2022-12-07T08:36:20;9.75;;;4.95;;
65420;SDS011;52028;50.658;14.004;2022-12-07T08:38:47;11.52;;;4.45;;
65420;SDS011;52028;50.658;14.004;2022-12-07T08:41:13;9.70;;;5.20;;
65420;SDS011;52028;50.658;14.004;2022-12-07T08:43:38;12.55;;;4.93;;
65420;SDS011;52028;50.658;14.004;2022-12-07T08:48:48;10.00;;;5.32;;
65420;SDS011;52028;50.658;14.004;2022-12-07T08:51:17;7.78;;;3.58;;
65420;SDS011;52028;50.658;14.004;2022-12-07T08:53:43;8.85;;;5.05;;
65420;SDS011;52028;50.658;14.004;2022-12-07T08:56:09;12.20;;;4.68;;
65420;SDS011;52028;50.658;14.004;2022-12-07T08:58:35;20.00;;;7.40;;
65420;SDS011;52028;50.658;14.004;2022-12-07T09:01:02;17.45;;;6.65;;
65420;SDS011;52028;50.658;14.004;2022-12-07T09:03:29;16.13;;;6.05;;
65420;SDS011;52028;50.658;14.004;2022-12-07T09:05:55;11.18;;;5.10;;
65420;SDS011;52028;50.658;14.004;2022-12-07T09:08:21;12.98;;;5.97;;
65420;SDS011;52028;50.658;14.004;2022-12-07T09:10:47;15.77;;;5.35;;
65420;SDS011;52028;50.658;14.004;2022-12-07T09:13:13;16.15;;;6.50;;
65420;SDS011;52028;50.658;14.004;2022-12-07T09:15:38;13.95;;;5.63;;
65420;SDS011;52028;50.658;14.004;2022-12-07T09:18:04;14.07;;;6.10;;
65420;SDS011;52028;50.658;14.004;2022-12-07T09:20:30;15.00;;;7.32;;
65420;SDS011;52028;50.658;14.004;2022-12-07T09:22:56;16.35;;;6.50;;
65420;SDS011;52028;50.658;14.004;2022-12-07T09:25:21;13.82;;;6.20;;
65420;SDS011;52028;50.658;14.004;2022-12-07T09:27:46;15.25;;;7.40;;
65420;SDS011;52028;50.658;14.004;2022-12-07T09:30:12;13.45;;;7.68;;
65420;SDS011;52028;50.658;14.004;2022-12-07T09:32:37;15.00;;;7.57;;
65420;SDS011;52028;50.658;14.004;2022-12-07T09:35:03;15.35;;;6.88;;
65420;SDS011;52028;50.658;14.004;2022-12-07T09:37:28;11.95;;;6.35;;
65420;SDS011;52028;50.658;14.004;2022-12-07T09:39:54;21.67;;;9.07;;
65420;SDS011;52028;50.658;14.004;2022-12-07T09:42:29;18.58;;;8.48;;
65420;SDS011;52028;50.658;14.004;2022-12-07T09:44:56;17.98;;;7.82;;
65420;SDS011;52028;50.658;14.004;2022-12-07T09:47:23;15.35;;;7.32;;
65420;SDS011;52028;50.658;14.004;2022-12-07T09:49:49;6.70;;;4.28;;
65420;SDS011;52028;50.658;14.004;2022-12-07T09:54:46;9.80;;;4.13;;
65420;SDS011;52028;50.658;14.004;2022-12-07T09:57:13;8.13;;;3.95;;
65420;SDS011;52028;50.658;14.004;2022-12-07T09:59:39;9.35;;;3.90;;
65420;SDS011;52028;50.658;14.004;2022-12-07T10:04:58;9.38;;;4.13;;
65420;SDS011;52028;50.658;14.004;2022-12-07T10:07:24;6.18;;;3.95;;
65420;SDS011;52028;50.658;14.004;2022-12-07T10:09:50;5.55;;;3.47;;
65420;SDS011;52028;50.658;14.004;2022-12-07T10:12:15;9.30;;;4.75;;
65420;SDS011;52028;50.658;14.004;2022-12-07T10:15:00;6.88;;;3.72;;
65420;SDS011;52028;50.658;14.004;2022-12-07T10:20:19;8.68;;;4.18;;
65420;SDS011;52028;50.658;14.004;2022-12-07T10:22:55;15.88;;;7.60;;
65420;SDS011;52028;50.658;14.004;2022-12-07T10:25:25;14.17;;;6.60;;
65420;SDS011;52028;50.658;14.004;2022-12-07T10:27:59;13.40;;;5.18;;
65420;SDS011;52028;50.658;14.004;2022-12-07T10:30:27;8.38;;;4.22;;
65420;SDS011;52028;50.658;14.004;2022-12-07T10:32:52;7.70;;;4.32;;
65420;SDS011;52028;50.658;14.004;2022-12-07T10:35:25;7.15;;;3.60;;
65420;SDS011;52028;50.658;14.004;2022-12-07T10:37:53;5.82;;;3.40;;
65420;SDS011;52028;50.658;14.004;2022-12-07T10:40:25;7.13;;;3.55;;
65420;SDS011;52028;50.658;14.004;2022-12-07T10:46:01;4.72;;;2.35;;
65420;SDS011;52028;50.658;14.004;2022-12-07T10:53:44;9.38;;;4.50;;
65420;SDS011;52028;50.658;14.004;2022-12-07T11:02:40;6.78;;;2.90;;
65420;SDS011;52028;50.658;14.004;2022-12-07T11:08:29;5.35;;;1.98;;
65420;SDS011;52028;50.658;14.004;2022-12-07T11:14:06;5.05;;;1.90;;
65420;SDS011;52028;50.658;14.004;2022-12-07T11:19:34;4.65;;;1.92;;
65420;SDS011;52028;50.658;14.004;2022-12-07T11:27:37;5.80;;;1.92;;
65420;SDS011;52028;50.658;14.004;2022-12-07T11:30:14;4.38;;;1.40;;
65420;SDS011;52028;50.658;14.004;2022-12-07T11:37:44;4.57;;;1.80;;
65420;SDS011;52028;50.658;14.004;2022-12-07T11:42:59;6.15;;;1.90;;
65420;SDS011;52028;50.658;14.004;2022-12-07T11:45:31;3.90;;;1.90;;
65420;SDS011;52028;50.658;14.004;2022-12-07T11:48:03;3.85;;;1.98;;
65420;SDS011;52028;50.658;14.004;2022-12-07T12:03:35;7.55;;;2.88;;
65420;SDS011;52028;50.658;14.004;2022-12-07T12:06:03;7.30;;;3.40;;
65420;SDS011;52028;50.658;14.004;2022-12-07T12:08:30;5.40;;;2.50;;
65420;SDS011;52028;50.658;14.004;2022-12-07T12:24:33;5.18;;;1.52;;
65420;SDS011;52028;50.658;14.004;2022-12-07T12:27:03;3.67;;;1.77;;
65420;SDS011;52028;50.658;14.004;2022-12-07T12:29:36;2.85;;;2.03;;
65420;SDS011;52028;50.658;14.004;2022-12-07T12:32:06;6.70;;;2.55;;
65420;SDS011;52028;50.658;14.004;2022-12-07T12:37:46;4.82;;;2.03;;
65420;SDS011;52028;50.658;14.004;2022-12-07T12:50:32;7.75;;;2.53;;
65420;SDS011;52028;50.658;14.004;2022-12-07T12:52:59;6.40;;;2.40;;
65420;SDS011;52028;50.658;14.004;2022-12-07T12:55:30;5.90;;;2.10;;
65420;SDS011;52028;50.658;14.004;2022-12-07T13:00:43;5.47;;;2.65;;
65420;SDS011;52028;50.658;14.004;2022-12-07T13:03:21;3.90;;;1.83;;
65420;SDS011;52028;50.658;14.004;2022-12-07T13:06:16;5.40;;;2.45;;
65420;SDS011;52028;50.658;14.004;2022-12-07T13:08:44;7.68;;;2.40;;
65420;SDS011;52028;50.658;14.004;2022-12-07T13:11:43;4.68;;;2.35;;
65420;SDS011;52028;50.658;14.004;2022-12-07T13:17:11;5.93;;;1.95;;
65420;SDS011;52028;50.658;14.004;2022-12-07T13:19:58;5.95;;;2.40;;
65420;SDS011;52028;50.658;14.004;2022-12-07T13:27:37;12.18;;;4.65;;
65420;SDS011;52028;50.658;14.004;2022-12-07T13:30:13;6.40;;;2.92;;
65420;SDS011;52028;50.658;14.004;2022-12-07T13:32:41;7.80;;;3.30;;
65420;SDS011;52028;50.658;14.004;2022-12-07T13:37:53;4.15;;;1.88;;
65420;SDS011;52028;50.658;14.004;2022-12-07T13:40:19;4.60;;;2.58;;
65420;SDS011;52028;50.658;14.004;2022-12-07T13:42:47;5.18;;;2.80;;
65420;SDS011;52028;50.658;14.004;2022-12-07T13:45:23;5.43;;;2.80;;
65420;SDS011;52028;50.658;14.004;2022-12-07T13:48:13;12.32;;;4.95;;
65420;SDS011;52028;50.658;14.004;2022-12-07T13:51:00;24.45;;;7.07;;
65420;SDS011;52028;50.658;14.004;2022-12-07T13:53:29;9.02;;;3.90;;
65420;SDS011;52028;50.658;14.004;2022-12-07T13:55:58;12.82;;;5.03;;
65420;SDS011;52028;50.658;14.004;2022-12-07T13:58:25;8.73;;;2.78;;
65420;SDS011;52028;50.658;14.004;2022-12-07T14:00:55;4.32;;;1.50;;
65420;SDS011;52028;50.658;14.004;2022-12-07T14:03:28;2.72;;;1.33;;
65420;SDS011;52028;50.658;14.004;2022-12-07T14:08:30;3.67;;;1.42;;
65420;SDS011;52028;50.658;14.004;2022-12-07T14:10:56;2.97;;;1.55;;
65420;SDS011;52028;50.658;14.004;2022-12-07T14:15:53;5.53;;;2.38;;
65420;SDS011;52028;50.658;14.004;2022-12-07T14:18:26;6.47;;;2.65;;
65420;SDS011;52028;50.658;14.004;2022-12-07T14:21:02;3.80;;;1.52;;
65420;SDS011;52028;50.658;14.004;2022-12-07T14:23:31;3.47;;;1.50;;
65420;SDS011;52028;50.658;14.004;2022-12-07T14:26:11;3.25;;;1.70;;
65420;SDS011;52028;50.658;14.004;2022-12-07T14:28:38;4.05;;;1.60;;
65420;SDS011;52028;50.658;14.004;2022-12-07T14:31:07;3.90;;;2.10;;
65420;SDS011;52028;50.658;14.004;2022-12-07T14:33:36;7.82;;;2.70;;
65420;SDS011;52028;50.658;14.004;2022-12-07T14:36:02;8.80;;;3.38;;
65420;SDS011;52028;50.658;14.004;2022-12-07T14:38:27;7.47;;;2.35;;
65420;SDS011;52028;50.658;14.004;2022-12-07T14:40:53;3.25;;;1.60;;
65420;SDS011;52028;50.658;14.004;2022-12-07T14:43:19;2.47;;;1.27;;
65420;SDS011;52028;50.658;14.004;2022-12-07T14:45:45;3.65;;;1.63;;
65420;SDS011;52028;50.658;14.004;2022-12-07T14:48:11;2.67;;;1.08;;
65420;SDS011;52028;50.658;14.004;2022-12-07T14:50:40;5.68;;;1.88;;
65420;SDS011;52028;50.658;14.004;2022-12-07T14:53:15;4.90;;;2.13;;
65420;SDS011;52028;50.658;14.004;2022-12-07T14:55:43;4.57;;;2.03;;
65420;SDS011;52028;50.658;14.004;2022-12-07T14:58:13;5.75;;;2.72;;
65420;SDS011;52028;50.658;14.004;2022-12-07T15:00:40;4.40;;;1.95;;
65420;SDS011;52028;50.658;14.004;2022-12-07T15:03:05;4.18;;;1.85;;
65420;SDS011;52028;50.658;14.004;2022-12-07T15:05:31;2.75;;;1.08;;
65420;SDS011;52028;50.658;14.004;2022-12-07T15:07:59;3.28;;;1.80;;
65420;SDS011;52028;50.658;14.004;2022-12-07T15:10:29;3.50;;;1.77;;
65420;SDS011;52028;50.658;14.004;2022-12-07T15:13:00;4.55;;;1.55;;
65420;SDS011;52028;50.658;14.004;2022-12-07T15:15:49;5.63;;;1.98;;
65420;SDS011;52028;50.658;14.004;2022-12-07T15:18:17;5.18;;;2.40;;
65420;SDS011;52028;50.658;14.004;2022-12-07T15:20:43;4.03;;;2.13;;
65420;SDS011;52028;50.658;14.004;2022-12-07T15:23:09;6.53;;;3.38;;
65420;SDS011;52028;50.658;14.004;2022-12-07T15:25:35;8.63;;;3.17;;
65420;SDS011;52028;50.658;14.004;2022-12-07T15:28:01;7.28;;;3.13;;
65420;SDS011;52028;50.658;14.004;2022-12-07T15:30:26;9.32;;;3.80;;
65420;SDS011;52028;50.658;14.004;2022-12-07T15:32:52;6.28;;;3.17;;
65420;SDS011;52028;50.658;14.004;2022-12-07T15:35:17;19.95;;;8.10;;
65420;SDS011;52028;50.658;14.004;2022-12-07T15:37:43;29.98;;;12.52;;
65420;SDS011;52028;50.658;14.004;2022-12-07T15:40:08;10.93;;;5.32;;
65420;SDS011;52028;50.658;14.004;2022-12-07T15:42:37;6.45;;;3.25;;
65420;SDS011;52028;50.658;14.004;2022-12-07T15:45:03;4.90;;;2.33;;
65420;SDS011;52028;50.658;14.004;2022-12-07T15:47:50;6.07;;;2.75;;
65420;SDS011;52028;50.658;14.004;2022-12-07T15:50:15;11.02;;;3.25;;
65420;SDS011;52028;50.658;14.004;2022-12-07T15:52:41;9.68;;;4.65;;
65420;SDS011;52028;50.658;14.004;2022-12-07T15:55:07;9.23;;;4.00;;
65420;SDS011;52028;50.658;14.004;2022-12-07T15:57:34;6.18;;;3.20;;
65420;SDS011;52028;50.658;14.004;2022-12-07T16:00:02;9.32;;;3.25;;
65420;SDS011;52028;50.658;14.004;2022-12-07T16:02:31;6.13;;;2.65;;
65420;SDS011;52028;50.658;14.004;2022-12-07T16:04:56;6.13;;;2.45;;
65420;SDS011;52028;50.658;14.004;2022-12-07T16:07:22;3.95;;;2.22;;
65420;SDS011;52028;50.658;14.004;2022-12-07T16:09:48;3.10;;;1.63;;
65420;SDS011;52028;50.658;14.004;2022-12-07T16:12:14;3.50;;;1.80;;
65420;SDS011;52028;50.658;14.004;2022-12-07T16:14:40;6.07;;;2.03;;
65420;SDS011;52028;50.658;14.004;2022-12-07T16:17:06;5.53;;;2.42;;
65420;SDS011;52028;50.658;14.004;2022-12-07T16:19:32;7.03;;;2.40;;
65420;SDS011;52028;50.658;14.004;2022-12-07T16:21:58;6.70;;;2.92;;
65420;SDS011;52028;50.658;14.004;2022-12-07T16:24:24;10.60;;;4.60;;
65420;SDS011;52028;50.658;14.004;2022-12-07T16:26:49;11.98;;;5.13;;
65420;SDS011;52028;50.658;14.004;2022-12-07T16:29:15;29.00;;;13.02;;
65420;SDS011;52028;50.658;14.004;2022-12-07T16:31:40;7.22;;;3.65;;
65420;SDS011;52028;50.658;14.004;2022-12-07T16:34:06;6.25;;;3.38;;
65420;SDS011;52028;50.658;14.004;2022-12-07T16:36:32;6.85;;;3.20;;
65420;SDS011;52028;50.658;14.004;2022-12-07T16:38:58;10.65;;;5.25;;
65420;SDS011;52028;50.658;14.004;2022-12-07T16:41:24;5.22;;;3.30;;
65420;SDS011;52028;50.658;14.004;2022-12-07T16:43:49;8.10;;;3.67;;
65420;SDS011;52028;50.658;14.004;2022-12-07T16:46:15;6.80;;;4.07;;
65420;SDS011;52028;50.658;14.004;2022-12-07T16:48:40;6.90;;;3.78;;
65420;SDS011;52028;50.658;14.004;2022-12-07T16:51:06;9.75;;;4.82;;
65420;SDS011;52028;50.658;14.004;2022-12-07T16:53:34;10.80;;;5.50;;
65420;SDS011;52028;50.658;14.004;2022-12-07T16:56:00;17.30;;;8.38;;
65420;SDS011;52028;50.658;14.004;2022-12-07T16:58:26;15.85;;;6.22;;
65420;SDS011;52028;50.658;14.004;2022-12-07T17:00:52;7.28;;;4.38;;
65420;SDS011;52028;50.658;14.004;2022-12-07T17:03:17;15.45;;;5.28;;
65420;SDS011;52028;50.658;14.004;2022-12-07T17:05:43;13.63;;;5.35;;
65420;SDS011;52028;50.658;14.004;2022-12-07T17:08:10;7.43;;;2.60;;
65420;SDS011;52028;50.658;14.004;2022-12-07T17:10:40;10.30;;;3.63;;